If you wish to contribute or participate in the discussions about articles you are invited to join SKYbrary as a registered user

 Actions

La Roche-sur-Yon Airport

From SKYbrary Wiki

LFRI
Airport
ICAO: LFRI – IATA: EDM
Summary
Name La Roche-sur-Yon Airport
Region Europe
Territory France FR.gif
Location , Pays de la Loire
Serving La Roche-sur-yon
Elevation 91.135 m
299 ft
299 ft91.135 m
Type medium airport
Coordinates 46° 42' 7.00" N, 1° 22' 43.05" W
Runways
Designator Length Width Surface ROPS
10/28 1550 m5,085.302 ft
30 m98.425 ft
ASP /


METAR
Observation LFRI 111030Z AUTO 02012KT 9000 NSC 12/04 Q1020 NOSIG
Station La Roche-Sur-Yon
Date/Time 11 April 2019 10:30:00
Wind direction 20°
Wind speed 12 kts
Lowest cloud amount nil significant cloud
Temperature 12°C
Dew point 4°C
Humidity 58%
QNH 1020 hPa
Weather condition n/a